createdAt,value
2023-05-23T00:02:18.818Z,6.10
2023-05-23T00:04:52.903Z,6.63
2023-05-23T00:07:28.351Z,7.00
2023-05-23T00:10:02.608Z,6.27
2023-05-23T00:12:37.856Z,6.50
2023-05-23T00:15:13.813Z,6.37
2023-05-23T00:17:47.997Z,7.50
2023-05-23T00:20:23.129Z,6.93
2023-05-23T00:22:58.969Z,7.03
2023-05-23T00:25:34.473Z,6.23
2023-05-23T00:28:08.904Z,7.27
2023-05-23T00:30:42.184Z,6.50
2023-05-23T00:33:16.453Z,7.50
2023-05-23T00:35:51.532Z,7.80
2023-05-23T00:38:25.395Z,7.43
2023-05-23T00:40:59.525Z,6.83
2023-05-23T00:43:33.548Z,8.20
2023-05-23T00:46:07.203Z,7.83
2023-05-23T00:48:41.216Z,8.17
2023-05-23T00:51:15.054Z,7.30
2023-05-23T00:53:49.323Z,7.63
2023-05-23T00:56:26.905Z,7.80
2023-05-23T00:59:02.482Z,8.00
2023-05-23T01:01:37.458Z,8.10
2023-05-23T01:04:11.851Z,7.83
2023-05-23T01:06:47.360Z,7.63
2023-05-23T01:09:23.157Z,7.73
2023-05-23T01:12:08.459Z,8.07
2023-05-23T01:14:48.894Z,7.97
2023-05-23T01:17:27.969Z,7.93
2023-05-23T01:20:10.137Z,8.03
2023-05-23T01:25:48.295Z,8.20
2023-05-23T01:28:24.736Z,7.97
2023-05-23T01:31:02.298Z,8.20
2023-05-23T01:33:36.754Z,8.63
2023-05-23T01:36:14.651Z,7.90
2023-05-23T01:38:48.781Z,8.93
2023-05-23T01:41:22.667Z,9.03
2023-05-23T01:43:57.472Z,8.50
2023-05-23T01:46:32.905Z,7.73
2023-05-23T01:49:09.713Z,8.63
2023-05-23T01:51:44.376Z,8.87
2023-05-23T01:54:21.012Z,9.10
2023-05-23T01:56:56.242Z,9.43
2023-05-23T01:59:29.945Z,9.07
2023-05-23T02:02:05.256Z,9.03
2023-05-23T02:04:38.919Z,9.17
2023-05-23T02:07:12.641Z,8.43
2023-05-23T02:09:46.940Z,9.13
2023-05-23T02:12:21.239Z,8.90
2023-05-23T02:14:55.431Z,8.50
2023-05-23T02:17:29.496Z,8.65
2023-05-23T02:20:04.412Z,8.93
2023-05-23T02:22:38.220Z,8.60
2023-05-23T02:25:13.198Z,8.50
2023-05-23T02:27:47.121Z,8.53
2023-05-23T02:30:22.156Z,8.53
2023-05-23T02:32:58.071Z,9.00
2023-05-23T02:35:31.973Z,8.00
2023-05-23T02:38:05.877Z,8.10
2023-05-23T02:40:39.559Z,8.67
2023-05-23T02:43:12.746Z,8.37
2023-05-23T02:45:45.949Z,8.03
2023-05-23T02:48:20.494Z,8.43
2023-05-23T02:50:54.187Z,8.70
2023-05-23T02:53:28.043Z,8.23
2023-05-23T02:56:02.300Z,8.77
2023-05-23T02:58:37.421Z,8.20
2023-05-23T03:01:10.818Z,8.20
2023-05-23T03:03:45.096Z,7.87
2023-05-23T03:06:19.306Z,8.27
2023-05-23T03:08:52.905Z,7.83
2023-05-23T03:11:27.665Z,8.00
2023-05-23T03:14:00.951Z,7.67
2023-05-23T03:16:34.289Z,7.67
2023-05-23T03:19:08.029Z,7.80
2023-05-23T03:21:42.312Z,7.83
2023-05-23T03:24:16.350Z,7.47
2023-05-23T03:26:49.923Z,7.73
2023-05-23T03:29:25.219Z,7.43
2023-05-23T03:31:58.905Z,7.20
2023-05-23T03:34:33.540Z,7.73
2023-05-23T03:37:07.618Z,7.10
2023-05-23T03:39:41.161Z,7.60
2023-05-23T03:42:15.255Z,8.40
2023-05-23T03:44:49.098Z,7.50
2023-05-23T03:47:24.509Z,7.20
2023-05-23T03:49:58.829Z,7.27
2023-05-23T03:52:32.923Z,7.80
2023-05-23T03:55:09.562Z,7.80
2023-05-23T03:57:43.202Z,8.20
2023-05-23T04:00:18.843Z,7.27
2023-05-23T04:02:53.329Z,6.73
2023-05-23T04:05:30.871Z,6.83
2023-05-23T04:08:06.059Z,7.77
2023-05-23T04:10:39.822Z,7.53
2023-05-23T04:13:13.921Z,7.40
2023-05-23T04:15:48.198Z,7.10
2023-05-23T04:18:22.389Z,6.63
2023-05-23T04:20:56.003Z,7.10
2023-05-23T04:23:30.003Z,7.27
2023-05-23T04:26:04.777Z,7.67
2023-05-23T04:28:44.112Z,7.97
2023-05-23T04:31:17.254Z,7.23
2023-05-23T04:33:51.980Z,8.30
2023-05-23T04:36:26.569Z,7.87
2023-05-23T04:39:02.214Z,7.50
2023-05-23T04:41:39.552Z,7.90
2023-05-23T04:44:30.577Z,7.10
2023-05-23T04:47:17.449Z,6.03
2023-05-23T04:50:15.048Z,6.05
2023-05-23T04:52:48.852Z,5.73
2023-05-23T04:55:22.712Z,6.05
2023-05-23T04:57:57.166Z,6.17
2023-05-23T05:00:31.299Z,6.00
2023-05-23T05:03:04.324Z,6.50
2023-05-23T05:05:37.863Z,5.80
2023-05-23T05:08:33.120Z,5.75
2023-05-23T05:11:07.119Z,6.10
2023-05-23T05:13:41.231Z,5.97
2023-05-23T05:16:14.317Z,5.90
2023-05-23T05:18:48.656Z,5.80
2023-05-23T05:21:22.566Z,6.57
2023-05-23T05:24:10.076Z,5.37
2023-05-23T05:26:44.077Z,5.50
2023-05-23T05:29:17.884Z,5.63
2023-05-23T05:31:52.253Z,5.17
2023-05-23T05:34:25.501Z,5.20
2023-05-23T05:36:59.586Z,4.83
2023-05-23T05:39:34.022Z,5.10
2023-05-23T05:42:08.864Z,4.83
2023-05-23T05:44:44.433Z,4.47
2023-05-23T05:47:19.852Z,4.63
2023-05-23T05:49:53.707Z,4.40
2023-05-23T05:52:27.966Z,4.30
2023-05-23T05:55:01.535Z,4.80
2023-05-23T05:57:35.274Z,4.43
2023-05-23T06:00:15.877Z,4.80
2023-05-23T06:02:55.168Z,4.10
2023-05-23T06:05:39.695Z,3.83
2023-05-23T06:08:13.838Z,3.93
2023-05-23T06:10:48.252Z,3.60
2023-05-23T06:13:21.903Z,4.07
2023-05-23T06:15:58.659Z,3.57
2023-05-23T06:18:32.676Z,3.87
2023-05-23T06:21:07.431Z,3.40
2023-05-23T06:23:41.795Z,3.45
2023-05-23T06:26:16.347Z,3.90
2023-05-23T06:28:50.544Z,4.20
2023-05-23T06:31:24.475Z,3.33
2023-05-23T06:33:58.643Z,3.13
2023-05-23T06:36:32.944Z,3.80
2023-05-23T06:39:10.146Z,3.90
2023-05-23T06:41:44.920Z,3.00
2023-05-23T06:44:19.092Z,3.40
2023-05-23T06:46:57.721Z,3.13
2023-05-23T06:49:33.142Z,2.97
2023-05-23T06:52:07.641Z,3.40
2023-05-23T06:54:40.877Z,3.13
2023-05-23T06:57:15.599Z,3.43
2023-05-23T06:59:49.867Z,3.27
2023-05-23T07:02:23.939Z,3.40
2023-05-23T07:04:58.108Z,3.50
2023-05-23T07:08:07.507Z,3.37
2023-05-23T07:10:43.062Z,3.37
2023-05-23T07:13:36.168Z,3.20
2023-05-23T07:16:10.610Z,3.40
2023-05-23T07:18:51.181Z,3.40
2023-05-23T07:21:25.112Z,3.13
2023-05-23T07:23:58.469Z,3.00
2023-05-23T07:26:32.478Z,3.17
2023-05-23T07:29:07.230Z,3.10
2023-05-23T07:31:40.866Z,3.07
2023-05-23T07:34:15.535Z,2.73
2023-05-23T07:36:57.364Z,3.17
2023-05-23T07:39:31.625Z,3.00
2023-05-23T07:42:06.503Z,3.10
2023-05-23T07:44:39.767Z,3.27
2023-05-23T07:47:13.651Z,3.20
2023-05-23T07:49:48.075Z,3.27
2023-05-23T07:52:22.696Z,3.17
2023-05-23T07:54:56.400Z,3.50
2023-05-23T07:57:30.685Z,3.77
2023-05-23T08:00:05.159Z,3.20
2023-05-23T08:02:48.706Z,3.53
2023-05-23T08:05:26.669Z,3.87
2023-05-23T08:08:02.318Z,3.50
2023-05-23T08:10:37.644Z,3.47
2023-05-23T08:13:16.675Z,3.40
2023-05-23T08:16:01.622Z,2.93
2023-05-23T08:18:36.594Z,3.47
2023-05-23T08:21:10.392Z,2.73
2023-05-23T08:23:44.196Z,3.13
2023-05-23T08:26:18.480Z,3.20
2023-05-23T08:28:52.825Z,3.57
2023-05-23T08:31:27.913Z,3.27
2023-05-23T08:34:02.755Z,3.40
2023-05-23T08:36:36.816Z,3.20
2023-05-23T08:39:13.948Z,3.47
2023-05-23T08:41:55.975Z,3.17
2023-05-23T08:44:29.887Z,2.80
2023-05-23T08:47:09.886Z,2.60
2023-05-23T08:49:56.618Z,3.63
2023-05-23T08:52:31.743Z,3.37
2023-05-23T08:55:06.284Z,3.13
2023-05-23T08:57:44.056Z,3.07
2023-05-23T09:00:44.251Z,3.03
2023-05-23T09:03:19.150Z,2.80
2023-05-23T09:06:02.439Z,3.65
2023-05-23T09:08:37.105Z,2.90
2023-05-23T09:11:13.204Z,3.10
2023-05-23T09:13:48.405Z,3.40
2023-05-23T09:16:22.964Z,3.00
2023-05-23T09:19:14.300Z,3.13
2023-05-23T09:21:51.423Z,3.00
2023-05-23T09:24:38.438Z,2.70
2023-05-23T09:27:14.184Z,3.00
2023-05-23T09:29:48.604Z,2.83
2023-05-23T09:32:25.093Z,2.73
2023-05-23T09:35:04.223Z,2.80
2023-05-23T09:37:41.032Z,3.20
2023-05-23T09:40:17.790Z,2.70
2023-05-23T09:43:05.693Z,2.80
2023-05-23T09:45:40.397Z,2.70
2023-05-23T09:48:16.983Z,2.70
2023-05-23T09:50:51.822Z,2.70
2023-05-23T09:53:26.682Z,2.93
2023-05-23T09:56:03.574Z,2.97
2023-05-23T09:58:39.870Z,2.80
2023-05-23T10:01:14.193Z,3.00
2023-05-23T10:03:56.716Z,2.70
2023-05-23T10:06:40.761Z,2.73
2023-05-23T10:09:19.233Z,3.17
2023-05-23T10:12:23.002Z,2.60
2023-05-23T10:14:59.381Z,2.93
2023-05-23T10:17:41.635Z,2.77
2023-05-23T10:20:18.229Z,2.80
2023-05-23T10:22:52.856Z,3.13
2023-05-23T10:25:26.642Z,2.80
2023-05-23T10:28:04.157Z,2.60
2023-05-23T10:30:39.110Z,2.90
2023-05-23T10:33:17.094Z,2.30
2023-05-23T10:35:59.151Z,2.90
2023-05-23T10:38:39.528Z,2.83
2023-05-23T10:41:22.149Z,2.83
2023-05-23T10:44:04.349Z,2.60
2023-05-23T10:46:55.373Z,2.93
2023-05-23T10:49:43.432Z,2.73
2023-05-23T10:52:20.188Z,3.00
2023-05-23T10:54:56.432Z,3.03
2023-05-23T10:57:31.049Z,3.07
2023-05-23T11:00:06.094Z,2.97
2023-05-23T11:02:40.392Z,2.90
2023-05-23T11:05:28.449Z,3.07
2023-05-23T11:08:17.912Z,2.73
2023-05-23T11:11:01.091Z,2.73
2023-05-23T11:13:58.119Z,3.00
2023-05-23T11:16:33.912Z,2.57
2023-05-23T11:19:28.257Z,3.13
2023-05-23T11:22:03.883Z,2.87
2023-05-23T11:25:01.147Z,2.67
2023-05-23T11:27:38.173Z,2.40
2023-05-23T11:30:15.267Z,2.97
2023-05-23T11:32:54.596Z,2.93
2023-05-23T11:35:29.334Z,2.60
2023-05-23T11:38:03.750Z,2.70
2023-05-23T11:40:40.201Z,2.60
2023-05-23T11:43:15.860Z,3.20
2023-05-23T11:45:49.824Z,2.63
2023-05-23T11:48:23.231Z,3.03
2023-05-23T11:50:57.928Z,2.70
2023-05-23T11:53:32.147Z,2.93
2023-05-23T11:56:07.257Z,2.33
2023-05-23T11:58:43.006Z,2.80
2023-05-23T12:01:16.888Z,2.70
2023-05-23T12:03:53.049Z,2.67
2023-05-23T12:06:27.749Z,3.10
2023-05-23T12:09:03.008Z,2.40
2023-05-23T12:11:38.851Z,2.63
2023-05-23T12:14:16.514Z,2.73
2023-05-23T12:16:50.611Z,2.50
2023-05-23T12:19:24.199Z,2.53
2023-05-23T12:21:58.324Z,2.20
2023-05-23T12:24:32.273Z,2.77
2023-05-23T12:27:07.582Z,2.70
2023-05-23T12:29:42.234Z,2.77
2023-05-23T12:32:15.497Z,3.00
2023-05-23T12:34:50.938Z,2.90
2023-05-23T12:37:25.958Z,2.70
2023-05-23T12:39:59.575Z,2.50
2023-05-23T12:42:45.456Z,2.30
2023-05-23T12:45:19.785Z,2.70
2023-05-23T12:47:54.701Z,2.60
2023-05-23T12:50:28.794Z,2.53
2023-05-23T12:53:02.729Z,3.03
2023-05-23T12:55:36.952Z,2.53
2023-05-23T12:58:10.633Z,2.67
2023-05-23T13:00:43.975Z,2.63
2023-05-23T13:03:18.357Z,2.40
2023-05-23T13:05:52.974Z,2.47
2023-05-23T13:08:27.780Z,2.40
2023-05-23T13:11:01.824Z,2.50
2023-05-23T13:13:35.832Z,2.50
2023-05-23T13:16:10.516Z,2.80
2023-05-23T13:18:44.666Z,2.70
2023-05-23T13:21:18.754Z,2.70
2023-05-23T13:23:52.394Z,2.30
2023-05-23T13:26:26.767Z,2.63
2023-05-23T13:29:00.419Z,2.73
2023-05-23T13:31:33.535Z,3.10
2023-05-23T13:34:07.084Z,2.53
2023-05-23T13:36:41.510Z,2.80
2023-05-23T13:39:14.618Z,2.67
2023-05-23T13:41:47.785Z,2.37
2023-05-23T13:44:21.971Z,2.07
2023-05-23T13:46:55.144Z,2.10
2023-05-23T13:49:29.521Z,2.63
2023-05-23T13:52:03.311Z,2.33
2023-05-23T13:54:37.624Z,2.10
2023-05-23T13:57:11.660Z,2.00
2023-05-23T13:59:45.384Z,1.80
2023-05-23T14:02:19.554Z,1.90
2023-05-23T14:04:54.006Z,1.83
2023-05-23T14:07:27.827Z,2.03
2023-05-23T14:10:01.501Z,2.37
2023-05-23T14:12:36.317Z,2.10
2023-05-23T14:15:13.965Z,2.27
2023-05-23T14:17:47.946Z,1.90
2023-05-23T14:20:21.850Z,2.33
2023-05-23T14:22:55.933Z,1.70
2023-05-23T14:25:30.804Z,1.80
2023-05-23T14:28:04.777Z,2.33
2023-05-23T14:30:38.787Z,2.03
2023-05-23T14:33:12.966Z,2.30
2023-05-23T14:35:46.561Z,2.20
2023-05-23T14:38:20.448Z,2.13
2023-05-23T14:40:54.894Z,1.90
2023-05-23T14:43:28.930Z,2.23
2023-05-23T14:46:02.888Z,2.37
2023-05-23T14:48:36.801Z,1.83
2023-05-23T14:51:14.050Z,1.47
2023-05-23T14:53:55.320Z,2.03
2023-05-23T14:56:29.564Z,1.87
2023-05-23T14:59:03.751Z,1.90
2023-05-23T15:01:39.516Z,1.70
2023-05-23T15:04:14.880Z,2.20
2023-05-23T15:06:51.144Z,2.00
2023-05-23T15:09:26.108Z,2.30
2023-05-23T15:12:00.180Z,1.80
2023-05-23T15:14:33.747Z,1.80
2023-05-23T15:17:09.032Z,2.37
2023-05-23T15:19:44.897Z,2.40
2023-05-23T15:22:34.299Z,2.50
2023-05-23T15:25:13.855Z,2.40
2023-05-23T15:27:48.157Z,2.43
2023-05-23T15:30:22.784Z,3.00
2023-05-23T15:32:59.850Z,2.73
2023-05-23T15:35:38.046Z,2.40
2023-05-23T15:38:14.131Z,2.17
2023-05-23T15:40:52.731Z,2.43
2023-05-23T15:43:26.554Z,2.27
2023-05-23T15:46:00.699Z,2.70
2023-05-23T15:48:34.502Z,2.50
2023-05-23T15:51:09.034Z,2.17
2023-05-23T15:53:59.804Z,2.40
2023-05-23T15:56:34.745Z,2.60
2023-05-23T15:59:09.329Z,2.60
2023-05-23T16:01:43.168Z,2.43
2023-05-23T16:04:17.366Z,2.50
2023-05-23T16:06:51.612Z,2.37
2023-05-23T16:09:25.411Z,3.00
2023-05-23T16:11:59.977Z,2.20
2023-05-23T16:14:34.971Z,2.47
2023-05-23T16:17:08.878Z,2.17
2023-05-23T16:19:43.438Z,2.47
2023-05-23T16:22:17.191Z,2.20
2023-05-23T16:24:50.797Z,2.10
2023-05-23T16:27:24.631Z,2.00
2023-05-23T16:29:58.061Z,1.87
2023-05-23T16:32:32.934Z,2.20
2023-05-23T16:35:07.423Z,2.10
2023-05-23T16:37:41.291Z,2.50
2023-05-23T16:40:17.632Z,2.23
2023-05-23T16:42:52.356Z,2.60
2023-05-23T16:45:27.622Z,1.77
2023-05-23T16:48:01.362Z,2.17
2023-05-23T16:50:36.139Z,2.17
2023-05-23T16:53:10.430Z,1.60
2023-05-23T16:55:44.416Z,1.90
2023-05-23T16:58:20.743Z,1.73
2023-05-23T17:00:55.160Z,2.20
2023-05-23T17:03:30.412Z,2.73
2023-05-23T17:06:04.974Z,2.97
2023-05-23T17:08:38.568Z,2.67
2023-05-23T17:11:12.460Z,2.23
2023-05-23T17:13:46.991Z,1.93
2023-05-23T17:16:21.256Z,1.97
2023-05-23T17:18:55.227Z,2.00
2023-05-23T17:21:29.638Z,2.00
2023-05-23T17:24:03.516Z,2.00
2023-05-23T17:26:37.671Z,1.90
2023-05-23T17:29:11.758Z,1.90
2023-05-23T17:31:44.856Z,1.80
2023-05-23T17:34:19.887Z,2.40
2023-05-23T17:36:53.919Z,1.93
2023-05-23T17:39:27.504Z,1.87
2023-05-23T17:42:01.516Z,1.80
2023-05-23T17:44:35.530Z,2.23
2023-05-23T17:47:10.269Z,2.07
2023-05-23T17:49:44.571Z,1.80
2023-05-23T17:52:18.509Z,2.30
2023-05-23T17:54:52.384Z,2.07
2023-05-23T17:57:26.414Z,2.30
2023-05-23T18:00:00.707Z,2.20
2023-05-23T18:02:34.426Z,2.80
2023-05-23T18:05:10.684Z,2.83
2023-05-23T18:07:46.433Z,2.77
2023-05-23T18:10:21.010Z,2.93
2023-05-23T18:12:55.496Z,2.80
2023-05-23T18:15:29.346Z,3.00
2023-05-23T18:18:03.316Z,2.97
2023-05-23T18:20:37.392Z,2.57
2023-05-23T18:23:12.315Z,3.00
2023-05-23T18:25:46.381Z,3.13
2023-05-23T18:28:19.826Z,2.97
2023-05-23T18:30:55.275Z,2.70
2023-05-23T18:33:28.953Z,3.17
2023-05-23T18:36:03.403Z,2.63
2023-05-23T18:38:37.359Z,3.00
2023-05-23T18:41:14.688Z,2.97
2023-05-23T18:43:50.381Z,3.40
2023-05-23T18:46:25.737Z,3.67
2023-05-23T18:48:59.926Z,3.83
2023-05-23T18:51:35.507Z,3.07
2023-05-23T18:54:09.621Z,3.30
2023-05-23T18:56:43.694Z,3.63
2023-05-23T18:59:17.990Z,3.67
2023-05-23T19:01:50.991Z,3.67
2023-05-23T19:04:25.383Z,3.40
2023-05-23T19:06:59.249Z,4.83
2023-05-23T19:09:32.996Z,6.40
2023-05-23T19:12:07.763Z,6.33
2023-05-23T19:14:41.794Z,7.07
2023-05-23T19:17:15.290Z,5.90
2023-05-23T19:19:48.852Z,5.67
2023-05-23T19:22:23.074Z,8.13
2023-05-23T19:24:57.262Z,7.97
2023-05-23T19:27:31.978Z,8.50
2023-05-23T19:30:06.590Z,7.33
2023-05-23T19:32:39.985Z,7.27
2023-05-23T19:35:16.540Z,4.63
2023-05-23T19:37:51.265Z,4.60
2023-05-23T19:40:25.727Z,4.47
2023-05-23T19:42:59.949Z,4.30
2023-05-23T19:45:34.603Z,4.60
2023-05-23T19:48:08.214Z,4.73
2023-05-23T19:50:43.713Z,4.77
2023-05-23T19:53:18.188Z,4.90
2023-05-23T19:55:51.606Z,5.03
2023-05-23T19:58:26.351Z,5.53
2023-05-23T20:01:00.504Z,5.10
2023-05-23T20:03:34.499Z,5.60
2023-05-23T20:06:08.780Z,6.27
2023-05-23T20:08:42.799Z,5.77
2023-05-23T20:11:16.807Z,5.70
2023-05-23T20:13:51.432Z,5.80
2023-05-23T20:16:25.323Z,5.73
2023-05-23T20:18:59.499Z,6.33
2023-05-23T20:21:33.496Z,5.90
2023-05-23T20:24:09.070Z,6.60
2023-05-23T20:26:43.261Z,6.60
2023-05-23T20:29:17.061Z,6.53
2023-05-23T20:31:49.904Z,6.30
2023-05-23T20:34:23.442Z,6.50
2023-05-23T20:36:57.724Z,6.00
2023-05-23T20:39:31.662Z,5.97
2023-05-23T20:42:06.156Z,6.50
2023-05-23T20:44:40.097Z,6.43
2023-05-23T20:47:13.527Z,6.13
2023-05-23T20:49:48.184Z,5.60
2023-05-23T20:52:23.235Z,7.23
2023-05-23T20:54:57.426Z,5.60
2023-05-23T20:57:31.318Z,5.80
2023-05-23T21:00:09.786Z,5.57
2023-05-23T21:02:43.821Z,6.20
2023-05-23T21:05:18.304Z,5.73
2023-05-23T21:07:52.557Z,6.03
2023-05-23T21:10:26.635Z,6.27
2023-05-23T21:13:00.363Z,5.60
2023-05-23T21:15:34.472Z,5.47
2023-05-23T21:18:08.163Z,6.50
2023-05-23T21:20:42.716Z,5.70
2023-05-23T21:23:16.861Z,5.67
2023-05-23T21:25:51.079Z,5.57
2023-05-23T21:28:24.839Z,5.10
2023-05-23T21:30:59.322Z,5.40
2023-05-23T21:33:33.577Z,5.63
2023-05-23T21:36:07.636Z,5.90
2023-05-23T21:38:42.699Z,5.90
2023-05-23T21:41:17.120Z,5.67
2023-05-23T21:43:50.795Z,5.33
2023-05-23T21:46:25.044Z,5.80
2023-05-23T21:48:58.862Z,5.70
2023-05-23T21:51:33.123Z,5.77
2023-05-23T21:54:07.437Z,6.10
2023-05-23T21:56:41.751Z,5.43
2023-05-23T21:59:15.780Z,5.70
2023-05-23T22:01:49.312Z,5.33
2023-05-23T22:04:22.965Z,5.30
2023-05-23T22:06:56.883Z,5.97
2023-05-23T22:09:30.745Z,5.10
2023-05-23T22:12:04.078Z,5.23
2023-05-23T22:14:38.398Z,5.80
2023-05-23T22:17:14.548Z,5.87
2023-05-23T22:19:48.649Z,5.23
2023-05-23T22:22:22.916Z,5.30
2023-05-23T22:24:57.259Z,5.60
2023-05-23T22:27:31.801Z,5.03
2023-05-23T22:30:06.231Z,4.90
2023-05-23T22:32:40.174Z,5.30
2023-05-23T22:35:15.422Z,5.73
2023-05-23T22:37:49.908Z,5.33
2023-05-23T22:40:24.319Z,5.73
2023-05-23T22:42:58.118Z,5.63
2023-05-23T22:45:32.549Z,4.90
2023-05-23T22:48:08.543Z,5.73
2023-05-23T22:50:42.345Z,5.50
2023-05-23T22:53:16.960Z,5.40
2023-05-23T22:55:51.306Z,5.37
2023-05-23T22:58:25.274Z,5.60
2023-05-23T23:00:59.470Z,6.13
2023-05-23T23:03:33.167Z,6.07
2023-05-23T23:06:09.542Z,5.57
2023-05-23T23:08:44.086Z,5.90
2023-05-23T23:11:18.032Z,5.80
2023-05-23T23:13:51.984Z,6.37
2023-05-23T23:16:26.450Z,5.93
2023-05-23T23:19:03.111Z,5.73
2023-05-23T23:21:38.097Z,5.87
2023-05-23T23:24:13.810Z,6.23
2023-05-23T23:26:47.231Z,6.43
2023-05-23T23:29:20.949Z,6.43
2023-05-23T23:31:55.921Z,6.33
2023-05-23T23:34:29.784Z,6.53
2023-05-23T23:37:03.589Z,6.20
2023-05-23T23:39:38.001Z,6.40
2023-05-23T23:42:11.456Z,6.40
2023-05-23T23:44:44.865Z,7.40
2023-05-23T23:47:18.504Z,6.57
2023-05-23T23:49:51.622Z,6.50
2023-05-23T23:52:24.957Z,6.80
2023-05-23T23:54:59.117Z,7.50
2023-05-23T23:57:33.197Z,6.23
